Time;durP1;ratioP1;P1;durP2;ratioP2;P2;SDS_P1;SDS_P2;PMS_P1;PMS_P2;Temp;Humidity;BMP_temperature;BMP_pressure;BME280_temperature;BME280_humidity;BME280_pressure;Samples;Min_cycle;Max_cycle;Signal;HPM_P1;HPM_P2
2022/03/10 00:01:31;;;;;;;30.00;18.95;;;1.60;89.90;;;;;;6244724;23;20191;-69
2022/03/10 00:04:16;;;;;;;25.52;18.00;;;1.60;89.70;;;;;;6242364;22;20253;-69
2022/03/10 00:07:04;;;;;;;29.02;19.52;;;1.60;90.00;;;;;;6242575;23;20500;-70
2022/03/10 00:09:49;;;;;;;28.37;19.23;;;1.70;89.70;;;;;;6244380;23;20186;-70
2022/03/10 00:12:35;;;;;;;29.42;20.55;;;1.60;89.50;;;;;;6244219;23;20349;-69
2022/03/10 00:15:23;;;;;;;32.33;20.90;;;1.50;89.70;;;;;;6241451;23;20541;-69
2022/03/10 00:18:09;;;;;;;34.10;21.10;;;1.40;90.10;;;;;;6244675;23;20174;-70
2022/03/10 00:20:55;;;;;;;33.13;21.15;;;1.40;90.10;;;;;;6244966;23;20166;-70
2022/03/10 00:23:42;;;;;;;34.50;18.63;;;1.50;90.30;;;;;;6244539;22;20526;-69
2022/03/10 00:26:27;;;;;;;31.58;20.60;;;1.40;90.20;;;;;;6243149;23;20178;-69
2022/03/10 00:29:13;;;;;;;29.80;20.87;;;1.40;89.90;;;;;;6245178;23;20168;-70
2022/03/10 00:32:01;;;;;;;31.85;20.52;;;1.50;89.80;;;;;;6244723;23;20425;-69
2022/03/10 00:34:46;;;;;;;36.85;21.08;;;1.50;90.00;;;;;;6243409;22;20908;-70
2022/03/10 00:37:32;;;;;;;35.80;21.70;;;1.50;90.00;;;;;;6244531;23;20171;-70
2022/03/10 00:40:20;;;;;;;36.03;22.20;;;1.40;90.00;;;;;;6244889;23;20373;-69
2022/03/10 00:43:09;;;;;;;31.60;22.48;;;1.30;90.40;;;;;;6243373;22;20257;-69
2022/03/10 00:45:55;;;;;;;34.55;20.17;;;1.30;90.40;;;;;;6242159;23;20213;-70
2022/03/10 00:48:41;;;;;;;36.42;23.40;;;1.30;90.30;;;;;;6244236;23;20302;-69
2022/03/10 00:51:27;;;;;;;39.05;22.55;;;1.30;90.60;;;;;;6243650;23;20167;-70
2022/03/10 00:54:13;;;;;;;31.30;21.37;;;1.10;90.70;;;;;;6241176;22;20252;-70
2022/03/10 00:57:00;;;;;;;30.70;21.20;;;1.10;91.30;;;;;;6243561;23;20352;-70
2022/03/10 00:59:46;;;;;;;32.88;22.10;;;1.20;91.20;;;;;;6244018;23;20175;-69
2022/03/10 01:02:32;;;;;;;34.13;21.30;;;1.10;91.10;;;;;;6243995;23;20207;-69
2022/03/10 01:05:18;;;;;;;31.10;21.50;;;1.20;91.20;;;;;;6241468;23;20355;-69
2022/03/10 01:08:04;;;;;;;33.97;21.77;;;1.10;91.20;;;;;;6243829;23;20820;-70
2022/03/10 01:10:49;;;;;;;35.08;20.33;;;1.10;91.10;;;;;;6243790;23;20170;-70
2022/03/10 01:13:36;;;;;;;34.53;21.42;;;1.10;91.20;;;;;;6243373;22;20206;-69
2022/03/10 01:16:22;;;;;;;39.33;23.02;;;1.10;91.30;;;;;;6242947;23;20225;-69
2022/03/10 01:19:08;;;;;;;28.25;20.85;;;0.80;91.60;;;;;;6243619;23;20175;-69
2022/03/10 01:21:54;;;;;;;29.58;20.50;;;0.70;92.40;;;;;;6243982;23;20190;-69
2022/03/10 01:24:41;;;;;;;34.20;22.25;;;0.80;93.00;;;;;;6240932;22;20206;-70
2022/03/10 01:27:26;;;;;;;32.00;21.05;;;0.80;93.30;;;;;;6243815;23;20281;-69
2022/03/10 01:30:13;;;;;;;35.75;22.33;;;0.80;93.10;;;;;;6243626;23;20185;-69
2022/03/10 01:32:59;;;;;;;35.38;23.08;;;0.80;93.30;;;;;;6243727;22;20542;-69
2022/03/10 01:35:45;;;;;;;38.60;20.38;;;0.80;93.20;;;;;;6241150;23;20498;-70
2022/03/10 01:38:30;;;;;;;31.25;21.08;;;0.80;93.30;;;;;;6243684;23;20171;-69
2022/03/10 01:41:16;;;;;;;31.55;20.08;;;0.80;93.30;;;;;;6243512;23;20166;-69
2022/03/10 01:44:03;;;;;;;31.75;21.70;;;0.80;93.20;;;;;;6240347;22;20213;-70
2022/03/10 01:46:51;;;;;;;37.92;21.17;;;0.80;93.00;;;;;;6242258;23;20247;-71
2022/03/10 01:49:36;;;;;;;33.80;21.38;;;0.70;93.20;;;;;;6242514;23;20230;-70
2022/03/10 01:52:22;;;;;;;30.85;20.70;;;0.70;93.40;;;;;;6241967;23;20166;-69
2022/03/10 01:55:08;;;;;;;35.65;21.83;;;0.60;93.50;;;;;;6237999;22;20712;-70
2022/03/10 01:57:54;;;;;;;38.85;22.35;;;0.70;93.80;;;;;;6242281;23;20293;-69
2022/03/10 02:00:40;;;;;;;31.65;19.70;;;0.80;93.60;;;;;;6242567;23;20185;-70
2022/03/10 02:03:27;;;;;;;37.88;21.48;;;0.80;93.30;;;;;;6239884;22;20204;-70
2022/03/10 02:06:14;;;;;;;31.43;20.77;;;0.70;93.40;;;;;;6241973;23;20185;-70
2022/03/10 02:12:05;;;;;;;34.13;21.23;;;0.80;93.30;;;;;;6242413;23;20155;-69
2022/03/10 02:17:54;;;;;;;30.58;20.15;;;0.80;93.30;;;;;;6242192;23;20162;-69
2022/03/10 02:20:41;;;;;;;30.30;20.73;;;0.80;93.30;;;;;;6242200;23;20187;-70
2022/03/10 02:23:28;;;;;;;33.58;20.58;;;0.80;93.10;;;;;;6239829;22;20213;-69
2022/03/10 02:26:14;;;;;;;34.17;20.73;;;0.90;93.00;;;;;;6242395;23;20171;-70
2022/03/10 02:29:00;;;;;;;33.50;20.00;;;0.90;92.50;;;;;;6242040;23;20174;-70
2022/03/10 02:31:46;;;;;;;28.93;20.43;;;0.90;92.50;;;;;;6242369;23;20698;-69
2022/03/10 02:34:31;;;;;;;29.52;19.95;;;0.80;92.50;;;;;;6238802;22;20389;-69
2022/03/10 02:37:18;;;;;;;29.92;19.65;;;0.80;92.70;;;;;;6241886;23;20298;-70
2022/03/10 02:40:06;;;;;;;27.50;19.98;;;0.60;92.40;;;;;;6241804;23;20214;-69
2022/03/10 02:42:52;;;;;;;31.65;20.13;;;0.60;92.90;;;;;;6188364;22;1184453;-69
2022/03/10 02:45:38;;;;;;;34.20;20.88;;;0.60;93.00;;;;;;6243062;23;20719;-69
2022/03/10 02:48:25;;;;;;;31.88;19.02;;;0.60;92.80;;;;;;6243370;23;20171;-69
2022/03/10 02:51:10;;;;;;;29.23;18.70;;;0.40;92.80;;;;;;6242843;23;20172;-69
2022/03/10 02:53:56;;;;;;;27.58;19.33;;;0.40;93.20;;;;;;6239236;22;20198;-69
2022/03/10 02:56:43;;;;;;;29.27;20.85;;;0.30;93.40;;;;;;6243040;23;20170;-70
2022/03/10 02:59:29;;;;;;;32.58;20.42;;;0.30;93.60;;;;;;6243281;23;20170;-70
2022/03/10 03:02:15;;;;;;;30.70;20.27;;;0.30;93.70;;;;;;6241974;23;20205;-70
2022/03/10 03:05:01;;;;;;;31.73;19.30;;;0.30;93.70;;;;;;6244037;22;20204;-69
2022/03/10 03:07:48;;;;;;;32.05;20.00;;;0.30;93.80;;;;;;6244943;23;20174;-69
2022/03/10 03:10:36;;;;;;;28.63;19.27;;;0.40;93.70;;;;;;6245125;23;20250;-70
2022/03/10 03:13:23;;;;;;;34.35;19.63;;;0.30;93.80;;;;;;6242186;22;20202;-69
2022/03/10 03:16:09;;;;;;;29.02;20.50;;;0.20;94.00;;;;;;6245247;23;20233;-69
2022/03/10 03:18:55;;;;;;;42.45;21.75;;;0.20;94.10;;;;;;6245016;23;20167;-69
2022/03/10 03:21:40;;;;;;;27.45;18.80;;;0.10;94.30;;;;;;6244991;23;20171;-70
2022/03/10 03:24:26;;;;;;;25.20;17.70;;;0.10;94.70;;;;;;6243359;22;20200;-70
2022/03/10 03:27:12;;;;;;;29.60;18.57;;;0.20;94.40;;;;;;6244859;23;20505;-70
2022/03/10 03:29:59;;;;;;;27.55;18.00;;;0.30;94.30;;;;;;6244627;23;20392;-70
2022/03/10 03:32:46;;;;;;;30.83;18.30;;;0.40;94.20;;;;;;6242785;22;20588;-69
2022/03/10 03:35:32;;;;;;;34.08;17.80;;;0.40;93.90;;;;;;6244584;23;20170;-69
2022/03/10 03:38:18;;;;;;;33.60;18.23;;;0.30;93.90;;;;;;6244950;23;20541;-69
2022/03/10 03:41:03;;;;;;;31.30;18.75;;;0.30;94.10;;;;;;6244657;23;20258;-69
2022/03/10 03:43:49;;;;;;;29.85;17.25;;;0.40;93.80;;;;;;6242141;22;20210;-71
2022/03/10 03:46:37;;;;;;;28.33;16.85;;;0.40;93.40;;;;;;6244588;23;20549;-70
2022/03/10 03:49:23;;;;;;;29.10;18.05;;;0.50;93.40;;;;;;6244775;23;20184;-71
2022/03/10 03:52:09;;;;;;;29.55;17.83;;;0.40;93.00;;;;;;6242330;23;20678;-69
2022/03/10 03:54:54;;;;;;;35.72;18.85;;;0.20;93.40;;;;;;6242867;22;20307;-69
2022/03/10 03:57:40;;;;;;;27.42;17.05;;;0.20;94.10;;;;;;6244619;23;20170;-69
2022/03/10 04:00:26;;;;;;;30.40;18.67;;;0.10;94.10;;;;;;6245103;23;20167;-69
2022/03/10 04:03:13;;;;;;;26.58;16.92;;;0.10;94.30;;;;;;6241572;22;20627;-69
2022/03/10 04:05:59;;;;;;;27.30;18.00;;;0.10;94.30;;;;;;6244531;23;20615;-70
2022/03/10 04:08:45;;;;;;;29.25;18.33;;;0.00;94.00;;;;;;6244645;23;20168;-69
2022/03/10 04:11:30;;;;;;;27.92;16.95;;;0.00;94.20;;;;;;6242679;23;20170;-69
2022/03/10 04:14:18;;;;;;;30.52;19.70;;;-0.10;94.40;;;;;;6243882;22;20202;-70
2022/03/10 04:17:04;;;;;;;29.83;17.60;;;-0.20;94.80;;;;;;6244075;23;20227;-69
2022/03/10 04:19:51;;;;;;;25.80;17.60;;;-0.30;95.40;;;;;;6244790;23;20169;-70
2022/03/10 04:22:37;;;;;;;28.80;18.42;;;-0.40;95.70;;;;;;6242231;23;20641;-69
2022/03/10 04:25:23;;;;;;;27.20;17.92;;;-0.40;96.20;;;;;;6243929;23;20166;-69
2022/03/10 04:28:09;;;;;;;31.23;18.45;;;-0.40;96.10;;;;;;6244025;23;20213;-69
2022/03/10 04:30:55;;;;;;;31.80;19.25;;;-0.40;96.40;;;;;;6242918;23;20171;-70
2022/03/10 04:33:40;;;;;;;31.25;18.60;;;-0.30;96.30;;;;;;6243507;22;20581;-69
2022/03/10 04:36:27;;;;;;;31.95;19.33;;;-0.20;96.00;;;;;;6244148;23;20254;-69
2022/03/10 04:39:13;;;;;;;30.27;17.30;;;-0.20;95.80;;;;;;6243987;23;20167;-70
2022/03/10 04:41:59;;;;;;;30.15;17.80;;;-0.20;95.80;;;;;;6242316;23;20261;-69
2022/03/10 04:44:44;;;;;;;30.55;18.73;;;-0.10;95.80;;;;;;6243377;22;20207;-70
2022/03/10 04:47:30;;;;;;;26.00;16.65;;;0.00;95.50;;;;;;6244197;23;20171;-69
2022/03/10 04:50:19;;;;;;;25.80;16.10;;;0.20;95.30;;;;;;6243904;23;20240;-69
2022/03/10 04:53:06;;;;;;;26.05;17.02;;;0.20;95.00;;;;;;6241432;22;20498;-70
2022/03/10 04:55:51;;;;;;;38.08;17.50;;;0.20;94.80;;;;;;6243828;23;20217;-69
2022/03/10 04:58:37;;;;;;;22.00;14.53;;;0.20;94.80;;;;;;6244235;23;20213;-69
2022/03/10 05:01:23;;;;;;;25.65;15.13;;;0.00;94.60;;;;;;6241558;23;20386;-70
2022/03/10 05:04:08;;;;;;;21.25;14.48;;;-0.20;95.10;;;;;;6242246;22;20207;-69
2022/03/10 05:06:54;;;;;;;22.75;16.17;;;-0.10;95.10;;;;;;6243666;23;20225;-69
2022/03/10 05:09:41;;;;;;;23.48;15.45;;;0.00;95.10;;;;;;6243959;23;20245;-69
2022/03/10 05:12:26;;;;;;;27.00;13.88;;;0.00;94.70;;;;;;6242347;23;20166;-69
2022/03/10 05:15:12;;;;;;;26.30;15.27;;;0.00;94.80;;;;;;6243484;23;20251;-70
2022/03/10 05:17:59;;;;;;;28.02;16.73;;;-0.10;95.00;;;;;;6243691;23;20171;-69
2022/03/10 05:20:46;;;;;;;21.20;15.15;;;-0.10;95.10;;;;;;6241921;23;20171;-69
2022/03/10 05:23:31;;;;;;;27.73;16.30;;;-0.30;95.30;;;;;;6242953;22;20508;-70
2022/03/10 05:26:19;;;;;;;27.52;15.15;;;-0.40;95.20;;;;;;6243433;23;20188;-69
2022/03/10 05:29:04;;;;;;;22.95;13.73;;;-0.40;95.70;;;;;;6243545;23;20642;-69
2022/03/10 05:31:50;;;;;;;26.27;15.63;;;-0.40;96.30;;;;;;6241658;23;20665;-70
2022/03/10 05:34:35;;;;;;;22.13;14.43;;;-0.30;96.30;;;;;;6242907;22;20301;-69
2022/03/10 05:37:21;;;;;;;25.48;14.90;;;-0.30;95.90;;;;;;6243624;23;20165;-69
2022/03/10 05:40:08;;;;;;;20.95;14.70;;;-0.30;96.20;;;;;;6241406;23;20165;-69
2022/03/10 05:42:55;;;;;;;22.35;14.90;;;-0.30;95.90;;;;;;6242899;22;20189;-69
2022/03/10 05:45:41;;;;;;;23.10;15.30;;;-0.40;96.10;;;;;;6243854;23;20186;-69
2022/03/10 05:48:27;;;;;;;21.92;15.32;;;-0.40;95.90;;;;;;6243811;23;20250;-70
2022/03/10 05:51:13;;;;;;;25.33;18.10;;;-0.50;96.00;;;;;;6241364;23;20228;-69
2022/03/10 05:53:58;;;;;;;26.52;15.85;;;-0.50;96.30;;;;;;6241691;22;20201;-69
2022/03/10 05:56:44;;;;;;;29.45;14.27;;;-0.50;96.50;;;;;;6243702;23;20169;-69
2022/03/10 05:59:30;;;;;;;27.02;15.52;;;-0.40;96.50;;;;;;6241988;23;20518;-69
2022/03/10 06:02:17;;;;;;;24.45;15.70;;;-0.40;96.30;;;;;;6243465;23;20985;-69
2022/03/10 06:05:02;;;;;;;23.52;14.77;;;-0.30;96.40;;;;;;6241170;22;20322;-69
2022/03/10 06:07:48;;;;;;;31.60;17.00;;;-0.20;96.10;;;;;;6243701;23;20166;-68
2022/03/10 06:10:34;;;;;;;25.67;14.52;;;-0.30;95.90;;;;;;6241084;23;20268;-69
2022/03/10 06:13:20;;;;;;;22.77;14.38;;;-0.30;95.90;;;;;;6242890;22;20206;-70
2022/03/10 06:16:07;;;;;;;22.38;13.75;;;-0.30;95.70;;;;;;6243256;23;20170;-70
2022/03/10 06:18:53;;;;;;;25.50;14.07;;;-0.20;95.90;;;;;;6243399;23;20247;-69
2022/03/10 06:21:38;;;;;;;22.63;14.40;;;-0.20;95.80;;;;;;6242286;23;20621;-69
2022/03/10 06:24:24;;;;;;;22.95;13.70;;;-0.20;96.00;;;;;;6242947;22;20205;-69
2022/03/10 06:27:09;;;;;;;23.63;15.18;;;-0.20;96.30;;;;;;6243188;23;20229;-70
2022/03/10 06:29:55;;;;;;;22.75;15.07;;;-0.10;96.30;;;;;;6241104;23;20275;-69
2022/03/10 06:32:42;;;;;;;20.98;13.43;;;-0.10;96.40;;;;;;6243067;23;20245;-69
2022/03/10 06:35:29;;;;;;;21.52;14.55;;;0.00;96.70;;;;;;6242916;23;20169;-69
2022/03/10 06:38:14;;;;;;;35.33;13.57;;;0.00;96.80;;;;;;6244869;23;20177;-69
2022/03/10 06:41:00;;;;;;;22.95;15.00;;;0.10;96.90;;;;;;6243241;23;20215;-70
2022/03/10 06:43:46;;;;;;;20.52;14.75;;;0.20;97.10;;;;;;6244492;22;20285;-68
2022/03/10 06:46:32;;;;;;;21.73;14.25;;;0.00;97.40;;;;;;6245596;23;20217;-69
2022/03/10 06:49:20;;;;;;;23.98;15.15;;;0.10;97.70;;;;;;6239409;23;20175;-69
2022/03/10 06:52:08;;;;;;;21.63;14.02;;;0.20;97.70;;;;;;6244995;23;20173;-71
2022/03/10 06:54:53;;;;;;;27.08;15.27;;;0.30;97.70;;;;;;6243206;22;20204;-69
2022/03/10 06:57:39;;;;;;;24.65;14.27;;;0.40;97.60;;;;;;6245370;23;20625;-69
2022/03/10 07:00:25;;;;;;;23.77;14.52;;;0.50;97.40;;;;;;6242917;23;20166;-68
2022/03/10 07:03:11;;;;;;;27.95;16.67;;;0.60;97.50;;;;;;6243214;22;20207;-69
2022/03/10 07:05:59;;;;;;;25.45;15.88;;;0.60;97.40;;;;;;6244833;23;20169;-69
2022/03/10 07:08:44;;;;;;;26.15;17.73;;;0.60;97.60;;;;;;6243492;23;20170;-68
2022/03/10 07:11:30;;;;;;;24.83;15.05;;;0.80;97.30;;;;;;6244916;23;20519;-68
2022/03/10 07:14:15;;;;;;;23.77;14.68;;;1.00;96.70;;;;;;6241210;22;20202;-68
2022/03/10 07:17:01;;;;;;;27.95;14.95;;;1.20;96.40;;;;;;6244718;23;20623;-68
2022/03/10 07:19:47;;;;;;;24.77;15.45;;;1.30;96.30;;;;;;6242929;23;20172;-68
2022/03/10 07:22:34;;;;;;;27.17;16.83;;;1.30;96.30;;;;;;6244763;23;20182;-68
2022/03/10 07:25:20;;;;;;;24.42;15.07;;;1.20;96.30;;;;;;6244596;23;20168;-68
2022/03/10 07:28:06;;;;;;;29.63;15.80;;;1.30;96.30;;;;;;6243675;23;20591;-68
2022/03/10 07:30:51;;;;;;;28.23;16.27;;;1.40;96.60;;;;;;6244434;23;20208;-68
2022/03/10 07:33:37;;;;;;;30.70;15.25;;;1.60;96.70;;;;;;6244160;22;20622;-68
2022/03/10 07:36:22;;;;;;;26.00;16.50;;;1.70;96.40;;;;;;6244822;23;20185;-68
2022/03/10 07:39:09;;;;;;;23.63;14.73;;;1.90;96.00;;;;;;6242763;23;20226;-68
2022/03/10 07:41:55;;;;;;;25.92;16.98;;;2.10;96.60;;;;;;6244337;23;20785;-68
2022/03/10 07:44:40;;;;;;;29.13;17.00;;;2.30;97.30;;;;;;6243875;22;20279;-68
2022/03/10 07:47:26;;;;;;;26.25;16.85;;;2.60;96.90;;;;;;6244751;23;20172;-68
2022/03/10 07:50:12;;;;;;;28.97;18.00;;;2.70;96.80;;;;;;6242528;23;20778;-68
2022/03/10 07:52:58;;;;;;;27.57;17.27;;;2.90;96.80;;;;;;6244275;22;20378;-68
2022/03/10 07:55:45;;;;;;;25.40;16.17;;;3.00;95.50;;;;;;6244680;23;20390;-68
2022/03/10 07:58:31;;;;;;;28.50;17.10;;;3.10;94.40;;;;;;6242215;23;20170;-68
2022/03/10 08:01:17;;;;;;;26.43;16.00;;;3.10;95.50;;;;;;6244798;23;20390;-68
2022/03/10 08:04:03;;;;;;;33.90;17.67;;;3.20;93.90;;;;;;6243035;22;20491;-68
2022/03/10 08:06:48;;;;;;;23.23;15.57;;;3.40;94.30;;;;;;6244478;23;20378;-68
2022/03/10 08:09:35;;;;;;;24.77;14.47;;;3.50;94.20;;;;;;6242129;23;20417;-68
2022/03/10 08:12:22;;;;;;;23.50;13.20;;;3.70;93.50;;;;;;6244298;23;20378;-68
2022/03/10 08:15:08;;;;;;;21.97;13.00;;;3.80;93.40;;;;;;6241583;22;20406;-68
2022/03/10 08:17:54;;;;;;;20.23;13.33;;;4.00;93.00;;;;;;6242656;23;20693;-68
2022/03/10 08:20:41;;;;;;;20.40;12.43;;;4.30;94.10;;;;;;6243945;23;20382;-68
2022/03/10 08:23:27;;;;;;;21.87;13.50;;;4.50;94.30;;;;;;6243752;22;20439;-68
2022/03/10 08:26:13;;;;;;;24.57;14.27;;;4.70;94.10;;;;;;6244010;23;20461;-68
2022/03/10 08:29:00;;;;;;;21.97;13.30;;;4.90;94.60;;;;;;6242060;23;20715;-68
2022/03/10 08:31:46;;;;;;;23.50;13.27;;;5.20;93.10;;;;;;6243904;23;21059;-68
2022/03/10 08:34:31;;;;;;;20.93;11.70;;;5.40;93.40;;;;;;6241049;22;20477;-68
2022/03/10 08:37:18;;;;;;;22.10;13.43;;;5.60;93.20;;;;;;6242541;23;20499;-68
2022/03/10 08:40:04;;;;;;;19.43;14.20;;;5.80;92.30;;;;;;6240577;23;20671;-68
2022/03/10 08:42:50;;;;;;;26.13;12.90;;;6.00;92.10;;;;;;6241160;22;20349;-68
2022/03/10 08:45:38;;;;;;;27.73;13.80;;;6.20;91.40;;;;;;6244162;23;20362;-68
2022/03/10 08:48:24;;;;;;;26.57;12.83;;;6.50;90.40;;;;;;6240548;23;20402;-68
2022/03/10 08:51:10;;;;;;;22.33;13.20;;;6.70;87.30;;;;;;6244117;23;20431;-68
2022/03/10 08:53:55;;;;;;;22.83;13.27;;;6.90;86.80;;;;;;6243019;22;20382;-67
2022/03/10 08:56:41;;;;;;;20.00;11.73;;;7.20;72.60;;;;;;6243931;23;20347;-68
2022/03/10 08:59:27;;;;;;;18.50;11.90;;;7.30;73.50;;;;;;6242498;23;20467;-68
2022/03/10 09:02:14;;;;;;;17.83;11.47;;;7.50;72.50;;;;;;6243548;23;20371;-68
2022/03/10 09:05:00;;;;;;;17.00;11.70;;;7.70;69.70;;;;;;6242183;22;20457;-67
2022/03/10 09:07:45;;;;;;;17.90;11.30;;;7.90;68.50;;;;;;6241596;23;20390;-68
2022/03/10 09:10:31;;;;;;;18.23;11.07;;;8.10;68.70;;;;;;6243313;23;20827;-68
2022/03/10 09:13:16;;;;;;;18.50;10.80;;;8.30;69.30;;;;;;6242952;22;20385;-69
2022/03/10 09:16:02;;;;;;;19.30;11.20;;;8.50;69.30;;;;;;6243447;23;20350;-68
2022/03/10 09:18:49;;;;;;;17.00;10.13;;;8.70;69.20;;;;;;6241210;23;20347;-69
2022/03/10 09:21:35;;;;;;;15.23;10.37;;;8.90;67.50;;;;;;6243277;23;20458;-69
2022/03/10 09:24:21;;;;;;;13.50;9.07;;;9.10;66.70;;;;;;6242905;22;20429;-69
2022/03/10 09:27:09;;;;;;;15.10;9.10;;;9.30;62.90;;;;;;6241558;23;20433;-69
2022/03/10 09:29:54;;;;;;;12.70;7.57;;;9.60;58.80;;;;;;6243197;23;20686;-69
2022/03/10 09:32:41;;;;;;;12.43;7.30;;;9.80;52.20;;;;;;6243274;23;20389;-69
2022/03/10 09:35:28;;;;;;;7.40;5.50;;;10.10;55.90;;;;;;6242573;23;20351;-69
2022/03/10 09:38:14;;;;;;;10.17;6.33;;;10.40;49.70;;;;;;6240108;23;20707;-69
2022/03/10 09:41:00;;;;;;;9.33;6.50;;;10.80;41.00;;;;;;6241708;23;20547;-69
2022/03/10 09:43:47;;;;;;;12.17;6.30;;;11.10;42.70;;;;;;6241348;22;20402;-69
2022/03/10 09:46:33;;;;;;;11.50;7.00;;;11.40;41.70;;;;;;6241821;23;20391;-69
2022/03/10 09:49:21;;;;;;;9.20;6.30;;;11.70;38.60;;;;;;6242783;23;20352;-69
2022/03/10 09:52:11;;;;;;;9.33;6.60;;;11.90;39.10;;;;;;6243116;23;20359;-69
2022/03/10 09:54:56;;;;;;;9.30;5.50;;;12.20;39.10;;;;;;6242156;22;20413;-69
2022/03/10 09:57:44;;;;;;;7.70;4.87;;;12.40;36.60;;;;;;6240621;23;20379;-69
2022/03/10 10:00:30;;;;;;;5.80;4.50;;;12.60;34.70;;;;;;6242951;23;20697;-69
2022/03/10 10:03:16;;;;;;;8.30;4.47;;;12.80;35.00;;;;;;6241250;22;20487;-70
2022/03/10 10:06:03;;;;;;;7.30;3.90;;;13.00;32.60;;;;;;6242161;23;20694;-70
2022/03/10 10:08:56;;;;;;;5.73;3.80;;;13.20;34.10;;;;;;6242432;23;20403;-70
2022/03/10 10:11:41;;;;;;;6.00;3.70;;;13.30;31.80;;;;;;6241927;23;20456;-69
2022/03/10 10:14:37;;;;;;;5.40;3.27;;;13.50;32.60;;;;;;6240708;22;20405;-69
2022/03/10 10:17:28;;;;;;;12.80;4.17;;;13.70;29.90;;;;;;6241122;23;20392;-69
2022/03/10 10:20:13;;;;;;;4.77;3.30;;;13.80;30.30;;;;;;6243244;23;20413;-69
2022/03/10 10:23:16;;;;;;;9.67;4.43;;;13.90;29.00;;;;;;6243039;22;20348;-71
2022/03/10 10:26:06;;;;;;;5.73;3.60;;;14.00;28.40;;;;;;6241951;23;20524;-69
2022/03/10 10:28:52;;;;;;;9.33;4.70;;;14.10;28.90;;;;;;6242964;23;20372;-69
2022/03/10 10:31:38;;;;;;;4.50;3.20;;;14.20;28.20;;;;;;6243444;23;20705;-70
2022/03/10 10:34:31;;;;;;;5.30;3.33;;;14.50;27.80;;;;;;6242726;22;20387;-69
2022/03/10 10:37:24;;;;;;;6.87;3.37;;;14.50;26.60;;;;;;6239096;23;20349;-69
2022/03/10 10:40:11;;;;;;;7.83;3.70;;;14.70;27.50;;;;;;6242885;23;20356;-70
2022/03/10 10:42:58;;;;;;;5.37;3.50;;;14.90;26.60;;;;;;6242621;22;20708;-69
2022/03/10 10:45:43;;;;;;;5.20;3.10;;;15.10;27.20;;;;;;6241664;23;20426;-69
2022/03/10 10:48:29;;;;;;;5.90;3.70;;;15.20;25.90;;;;;;6242610;23;20356;-69
2022/03/10 10:51:25;;;;;;;3.27;2.57;;;15.40;26.00;;;;;;6242961;23;20378;-68
2022/03/10 10:54:23;;;;;;;3.50;2.17;;;15.50;25.50;;;;;;6238088;22;20389;-69
2022/03/10 10:57:09;;;;;;;3.53;2.63;;;15.60;25.90;;;;;;6242000;23;20726;-69
2022/03/10 11:00:07;;;;;;;3.20;2.20;;;15.90;25.20;;;;;;6239845;23;20772;-69
2022/03/10 11:02:53;;;;;;;3.33;2.17;;;15.90;24.40;;;;;;6240467;22;20840;-69
2022/03/10 11:05:39;;;;;;;4.53;2.87;;;16.10;25.10;;;;;;6240729;23;20478;-69
2022/03/10 11:08:26;;;;;;;4.20;2.77;;;16.30;23.50;;;;;;6240502;23;20379;-69
2022/03/10 11:11:12;;;;;;;5.60;3.13;;;16.40;24.00;;;;;;6242850;23;20383;-68
2022/03/10 11:13:57;;;;;;;7.00;3.40;;;16.50;23.50;;;;;;6234948;22;20423;-69
2022/03/10 11:16:45;;;;;;;9.70;3.43;;;16.40;22.20;;;;;;6242232;23;20465;-68
2022/03/10 11:19:34;;;;;;;4.60;3.50;;;16.40;22.90;;;;;;6242215;23;20375;-69
2022/03/10 11:22:29;;;;;;;5.40;3.53;;;16.40;23.80;;;;;;6242981;23;20376;-68
2022/03/10 11:25:34;;;;;;;5.10;3.50;;;16.50;24.30;;;;;;6242632;23;20501;-69
2022/03/10 11:28:23;;;;;;;5.00;3.60;;;16.60;22.80;;;;;;6244993;23;20350;-69
2022/03/10 11:31:09;;;;;;;4.73;3.20;;;16.70;23.70;;;;;;6242724;23;20905;-69
2022/03/10 11:33:56;;;;;;;3.90;2.87;;;16.80;23.80;;;;;;6241979;22;20489;-70
2022/03/10 11:36:42;;;;;;;4.60;2.97;;;16.90;23.90;;;;;;6242056;23;20350;-69
2022/03/10 11:39:29;;;;;;;7.33;3.27;;;17.00;22.70;;;;;;6242462;23;20355;-69
2022/03/10 11:42:25;;;;;;;5.07;3.13;;;17.10;23.20;;;;;;6240930;23;20376;-69
2022/03/10 11:45:15;;;;;;;16.93;3.90;;;17.20;22.70;;;;;;6242154;22;20545;-68
2022/03/10 11:48:36;;;;;;;6.83;3.40;;;17.20;22.90;;;;;;6243200;23;20383;-68
2022/03/10 11:51:44;;;;;;;6.37;3.87;;;17.20;22.80;;;;;;6241257;23;20475;-69
2022/03/10 11:54:31;;;;;;;4.77;3.30;;;17.20;21.70;;;;;;6242058;22;20493;-70
2022/03/10 11:57:17;;;;;;;6.07;3.47;;;17.30;22.40;;;;;;6243384;23;20361;-68
2022/03/10 12:00:03;;;;;;;5.30;3.30;;;17.30;21.70;;;;;;6242567;23;20515;-69
2022/03/10 12:02:58;;;;;;;4.23;3.13;;;17.40;21.70;;;;;;6241994;22;20376;-71
2022/03/10 12:05:55;;;;;;;4.90;3.43;;;17.40;22.20;;;;;;6241377;23;21041;-68
2022/03/10 12:08:42;;;;;;;4.80;2.90;;;17.50;21.50;;;;;;6241593;23;20395;-68
2022/03/10 12:11:49;;;;;;;6.10;3.10;;;17.60;21.40;;;;;;6239933;23;20458;-68
2022/03/10 12:14:36;;;;;;;5.30;3.60;;;17.60;21.40;;;;;;6241355;22;20407;-70
2022/03/10 12:17:52;;;;;;;6.00;3.63;;;17.70;20.20;;;;;;6242023;23;20470;-72
2022/03/10 12:20:41;;;;;;;7.10;3.63;;;17.60;21.80;;;;;;6240756;23;20431;-68
2022/03/10 12:23:31;;;;;;;6.57;4.00;;;17.80;22.20;;;;;;6241092;22;20463;-68
2022/03/10 12:26:25;;;;;;;7.30;4.33;;;18.00;21.90;;;;;;6242368;23;20428;-68
2022/03/10 12:29:13;;;;;;;5.40;4.27;;;18.00;21.20;;;;;;6241801;23;20384;-69
2022/03/10 12:32:05;;;;;;;5.03;3.53;;;18.10;21.00;;;;;;6240042;23;20351;-68
2022/03/10 12:34:51;;;;;;;6.87;3.80;;;18.20;21.50;;;;;;6242213;22;20987;-68
2022/03/10 12:37:37;;;;;;;5.63;3.50;;;18.30;21.60;;;;;;6241335;23;20359;-68
2022/03/10 12:40:24;;;;;;;5.83;3.97;;;18.50;20.80;;;;;;6241120;23;20385;-69
2022/03/10 12:43:11;;;;;;;6.53;4.37;;;18.70;21.10;;;;;;6239741;22;20433;-69
2022/03/10 12:45:58;;;;;;;8.83;4.43;;;18.70;20.80;;;;;;6241609;23;20867;-68
2022/03/10 12:48:50;;;;;;;9.53;4.07;;;18.60;20.30;;;;;;6241590;23;20863;-68
2022/03/10 12:51:37;;;;;;;6.67;4.20;;;18.80;20.70;;;;;;6238400;23;20351;-70
2022/03/10 12:54:23;;;;;;;6.70;3.70;;;18.80;20.00;;;;;;6241139;22;20456;-68
2022/03/10 12:57:09;;;;;;;9.70;4.57;;;19.00;21.10;;;;;;6242096;23;20376;-68
2022/03/10 12:59:58;;;;;;;9.00;5.50;;;19.00;20.10;;;;;;6241240;23;20381;-71
2022/03/10 13:02:44;;;;;;;17.07;4.87;;;18.90;20.20;;;;;;6241136;23;21036;-69
2022/03/10 13:05:31;;;;;;;5.37;4.17;;;19.00;20.90;;;;;;6241425;23;20424;-68
2022/03/10 13:08:18;;;;;;;6.67;4.10;;;19.10;20.20;;;;;;6241683;23;20376;-70
2022/03/10 13:11:04;;;;;;;8.00;5.00;;;19.30;19.40;;;;;;6240843;23;20351;-68
2022/03/10 13:14:03;;;;;;;7.07;4.93;;;19.30;18.60;;;;;;6241662;22;20413;-71
2022/03/10 13:16:51;;;;;;;5.90;4.70;;;19.20;19.20;;;;;;6240122;23;20455;-72
2022/03/10 13:19:41;;;;;;;33.93;8.43;;;19.20;20.40;;;;;;6240078;23;20462;-70
2022/03/10 13:22:26;;;;;;;12.83;5.50;;;19.30;20.90;;;;;;6242205;23;20378;-70
2022/03/10 13:25:12;;;;;;;17.03;6.37;;;19.50;20.30;;;;;;6241212;22;20583;-68
2022/03/10 13:28:00;;;;;;;9.77;5.67;;;19.70;18.80;;;;;;6238647;23;20509;-69
2022/03/10 13:30:46;;;;;;;8.73;5.50;;;19.70;18.10;;;;;;6236542;23;20718;-69
2022/03/10 13:33:34;;;;;;;7.47;5.33;;;19.90;18.10;;;;;;6241387;22;20557;-69
2022/03/10 13:36:20;;;;;;;8.90;6.53;;;20.00;17.80;;;;;;6239278;23;20467;-68
2022/03/10 13:39:05;;;;;;;12.93;5.50;;;19.90;17.90;;;;;;6241181;23;20903;-69
2022/03/10 13:41:51;;;;;;;10.30;6.63;;;19.90;18.70;;;;;;6242608;23;20421;-68
2022/03/10 13:44:37;;;;;;;15.93;6.60;;;19.70;18.90;;;;;;6240809;22;20445;-68
2022/03/10 13:47:24;;;;;;;9.17;5.90;;;19.80;18.40;;;;;;6241454;23;20380;-68
2022/03/10 13:50:12;;;;;;;14.90;6.80;;;19.60;18.80;;;;;;6239487;23;20506;-68
2022/03/10 13:53:00;;;;;;;8.70;6.00;;;19.80;18.10;;;;;;6241582;22;20379;-69
2022/03/10 13:55:49;;;;;;;8.17;6.13;;;19.80;18.80;;;;;;6242554;23;20367;-69
2022/03/10 13:58:34;;;;;;;9.33;6.37;;;20.00;17.50;;;;;;6240233;23;20863;-69
2022/03/10 14:01:26;;;;;;;9.80;7.17;;;20.10;19.00;;;;;;6241603;23;20722;-69
2022/03/10 14:04:14;;;;;;;11.57;7.03;;;19.90;18.50;;;;;;6239029;22;20413;-69
2022/03/10 14:07:08;;;;;;;8.20;5.63;;;19.90;19.50;;;;;;6239624;23;20773;-69
2022/03/10 14:09:55;;;;;;;9.00;5.57;;;19.80;18.20;;;;;;6235927;23;20385;-71
2022/03/10 14:12:41;;;;;;;8.30;6.10;;;19.80;18.80;;;;;;6238167;23;20372;-69
2022/03/10 14:15:28;;;;;;;18.23;5.27;;;19.90;17.80;;;;;;6237120;23;20374;-69
2022/03/10 14:18:15;;;;;;;9.20;5.63;;;19.90;17.70;;;;;;6237358;23;20478;-69
2022/03/10 14:21:05;;;;;;;8.50;5.80;;;19.80;16.90;;;;;;6237783;23;21200;-69
2022/03/10 14:23:59;;;;;;;12.33;5.73;;;19.80;17.10;;;;;;6240611;22;20482;-69
2022/03/10 14:26:45;;;;;;;8.50;5.60;;;20.00;15.80;;;;;;6242896;23;20883;-69